createdAt,value
2018-05-16T00:01:27.242Z,7.83
2018-05-16T00:03:55.372Z,7.53
2018-05-16T00:06:23.489Z,7.73
2018-05-16T00:08:51.627Z,7.00
2018-05-16T00:11:19.755Z,8.27
2018-05-16T00:13:47.890Z,8.20
2018-05-16T00:16:16.006Z,8.30
2018-05-16T00:18:44.140Z,9.47
2018-05-16T00:21:12.266Z,8.57
2018-05-16T00:23:40.398Z,9.30
2018-05-16T00:26:08.528Z,10.37
2018-05-16T00:28:36.655Z,11.27
2018-05-16T00:31:04.810Z,13.77
2018-05-16T00:33:32.990Z,13.80
2018-05-16T00:36:01.128Z,11.83
2018-05-16T00:38:29.266Z,11.00
2018-05-16T00:40:57.392Z,10.70
2018-05-16T00:43:25.542Z,12.30
2018-05-16T00:45:53.674Z,11.43
2018-05-16T00:48:21.854Z,11.00
2018-05-16T00:51:01.859Z,10.70
2018-05-16T00:53:30.004Z,10.37
2018-05-16T00:55:58.136Z,10.35
2018-05-16T00:58:26.286Z,11.17
2018-05-16T01:00:54.488Z,11.27
2018-05-16T01:03:22.612Z,9.97
2018-05-16T01:05:50.738Z,9.70
2018-05-16T01:08:18.858Z,10.30
2018-05-16T01:10:46.995Z,10.13
2018-05-16T01:13:15.149Z,9.97
2018-05-16T01:15:43.262Z,9.50
2018-05-16T01:18:11.459Z,10.27
2018-05-16T01:20:39.511Z,9.80
2018-05-16T01:23:07.661Z,9.47
2018-05-16T01:25:35.783Z,8.50
2018-05-16T01:28:03.905Z,8.80
2018-05-16T01:30:32.050Z,8.77
2018-05-16T01:33:00.166Z,9.23
2018-05-16T01:35:28.294Z,9.50
2018-05-16T01:37:56.425Z,9.93
2018-05-16T01:40:24.564Z,8.50
2018-05-16T01:42:52.700Z,8.47
2018-05-16T01:45:20.844Z,8.18
2018-05-16T01:47:48.973Z,8.13
2018-05-16T01:50:17.102Z,8.53
2018-05-16T01:52:45.339Z,10.33
2018-05-16T01:55:13.710Z,8.07
2018-05-16T01:57:41.842Z,7.63
2018-05-16T02:00:09.970Z,8.30
2018-05-16T02:02:38.091Z,8.33
2018-05-16T02:05:06.302Z,8.27
2018-05-16T02:07:34.417Z,8.30
2018-05-16T02:10:02.542Z,7.13
2018-05-16T02:12:30.661Z,9.00
2018-05-16T02:14:58.796Z,7.80
2018-05-16T02:17:26.907Z,7.07
2018-05-16T02:19:55.042Z,11.15
2018-05-16T02:22:23.184Z,7.37
2018-05-16T02:24:51.305Z,7.47
2018-05-16T02:27:19.435Z,8.68
2018-05-16T02:29:47.573Z,6.77
2018-05-16T02:32:15.698Z,7.10
2018-05-16T02:34:43.823Z,8.13
2018-05-16T02:37:11.942Z,8.00
2018-05-16T02:39:40.068Z,8.23
2018-05-16T02:42:08.335Z,12.13
2018-05-16T02:44:36.465Z,9.73
2018-05-16T02:47:04.586Z,10.53
2018-05-16T02:49:32.715Z,11.37
2018-05-16T02:52:00.883Z,11.20
2018-05-16T02:54:29.028Z,15.27
2018-05-16T02:56:57.152Z,12.20
2018-05-16T02:59:25.290Z,12.63
2018-05-16T03:01:53.421Z,12.37
2018-05-16T03:04:21.556Z,12.70
2018-05-16T03:06:49.690Z,14.23
2018-05-16T03:09:17.847Z,17.17
2018-05-16T03:11:46.007Z,19.57
2018-05-16T03:14:14.139Z,16.00
2018-05-16T03:16:42.290Z,14.47
2018-05-16T03:19:10.431Z,14.90
2018-05-16T03:21:38.548Z,21.53
2018-05-16T03:24:06.691Z,15.00
2018-05-16T03:26:34.830Z,19.83
2018-05-16T03:29:02.966Z,14.00
2018-05-16T03:31:31.113Z,13.60
2018-05-16T03:33:59.253Z,12.30
2018-05-16T03:36:27.388Z,12.30
2018-05-16T03:38:55.529Z,10.83
2018-05-16T03:41:23.667Z,11.82
2018-05-16T03:43:51.804Z,13.37
2018-05-16T03:46:19.925Z,12.73
2018-05-16T03:48:48.058Z,13.40
2018-05-16T03:51:16.288Z,11.27
2018-05-16T03:53:44.430Z,11.10
2018-05-16T03:56:12.584Z,11.77
2018-05-16T03:58:52.578Z,11.23
2018-05-16T04:01:32.523Z,10.60
2018-05-16T04:04:12.557Z,10.93
2018-05-16T04:06:40.683Z,11.03
2018-05-16T04:09:08.839Z,13.23
2018-05-16T04:11:36.993Z,11.97
2018-05-16T04:14:05.121Z,12.40
2018-05-16T04:16:33.262Z,11.70
2018-05-16T04:19:01.401Z,11.77
2018-05-16T04:21:29.629Z,12.83
2018-05-16T04:23:57.679Z,10.87
2018-05-16T04:26:25.826Z,12.30
2018-05-16T04:28:54.020Z,11.67
2018-05-16T04:31:22.105Z,12.87
2018-05-16T04:33:50.239Z,15.90
2018-05-16T04:36:18.375Z,13.17
2018-05-16T04:38:46.501Z,13.73
2018-05-16T04:41:14.668Z,14.43
2018-05-16T04:43:42.816Z,16.83
2018-05-16T04:46:10.965Z,15.07
2018-05-16T04:48:39.119Z,16.53
2018-05-16T04:51:07.299Z,15.60
2018-05-16T04:53:35.438Z,15.57
2018-05-16T04:56:03.575Z,14.67
2018-05-16T04:58:31.711Z,17.97
2018-05-16T05:00:59.895Z,19.20
2018-05-16T05:03:27.973Z,17.23
2018-05-16T05:05:56.124Z,18.27
2018-05-16T05:08:24.252Z,16.70
2018-05-16T05:10:52.389Z,20.60
2018-05-16T05:13:20.522Z,21.67
2018-05-16T05:15:48.665Z,20.07
2018-05-16T05:18:16.873Z,19.30
2018-05-16T05:20:44.943Z,20.30
2018-05-16T05:23:13.076Z,20.20
2018-05-16T05:25:41.206Z,19.33
2018-05-16T05:28:09.339Z,19.77
2018-05-16T05:30:37.468Z,19.70
2018-05-16T05:33:05.655Z,19.67
2018-05-16T05:35:33.806Z,21.50
2018-05-16T05:38:01.937Z,21.40
2018-05-16T05:40:30.580Z,22.57
2018-05-16T05:42:58.713Z,25.80
2018-05-16T05:45:26.849Z,25.33
2018-05-16T05:47:54.985Z,22.53
2018-05-16T05:50:23.122Z,30.17
2018-05-16T05:52:51.251Z,24.73
2018-05-16T05:55:19.378Z,24.13
2018-05-16T05:57:47.511Z,21.70
2018-05-16T06:00:15.635Z,25.83
2018-05-16T06:02:43.767Z,23.67
2018-05-16T06:05:11.889Z,23.80
2018-05-16T06:07:40.064Z,26.02
2018-05-16T06:10:08.167Z,29.80
2018-05-16T06:12:36.301Z,25.43
2018-05-16T06:15:04.418Z,30.73
2018-05-16T06:17:32.556Z,31.43
2018-05-16T06:20:00.708Z,30.17
2018-05-16T06:22:28.831Z,28.67
2018-05-16T06:24:56.973Z,33.55
2018-05-16T06:27:25.124Z,29.63
2018-05-16T06:29:53.259Z,29.17
2018-05-16T06:32:21.387Z,29.73
2018-05-16T06:34:49.520Z,28.07
2018-05-16T06:37:17.656Z,27.73
2018-05-16T06:39:45.805Z,33.20
2018-05-16T06:42:13.938Z,25.53
2018-05-16T06:44:42.070Z,39.10
2018-05-16T06:47:10.215Z,29.17
2018-05-16T06:49:38.339Z,27.17
2018-05-16T06:52:06.462Z,29.30
2018-05-16T06:54:34.589Z,28.87
2018-05-16T06:57:02.742Z,29.80
2018-05-16T06:59:30.882Z,30.40
2018-05-16T07:01:59.002Z,30.00
2018-05-16T07:04:27.142Z,32.13
2018-05-16T07:06:55.270Z,27.33
2018-05-16T07:09:23.406Z,34.97
2018-05-16T07:11:51.531Z,32.20
2018-05-16T07:14:19.657Z,29.13
2018-05-16T07:16:47.799Z,28.83
2018-05-16T07:19:15.951Z,28.27
2018-05-16T07:21:44.081Z,34.00
2018-05-16T07:24:12.724Z,27.47
2018-05-16T07:26:40.850Z,28.90
2018-05-16T07:29:08.974Z,27.87
2018-05-16T07:31:37.139Z,33.20
2018-05-16T07:34:05.264Z,30.20
2018-05-16T07:36:33.429Z,30.40
2018-05-16T07:39:01.568Z,28.60
2018-05-16T07:41:29.689Z,31.53
2018-05-16T07:43:57.832Z,43.87
2018-05-16T07:46:25.962Z,54.40
2018-05-16T07:48:54.100Z,32.27
2018-05-16T07:51:22.242Z,33.85
2018-05-16T07:53:50.393Z,33.57
2018-05-16T07:56:18.518Z,32.67
2018-05-16T07:58:46.655Z,35.27
2018-05-16T08:01:14.795Z,33.27
2018-05-16T08:03:42.916Z,36.17
2018-05-16T08:06:11.078Z,35.83
2018-05-16T08:08:39.212Z,33.70
2018-05-16T08:11:07.411Z,30.62
2018-05-16T08:13:35.558Z,28.27
2018-05-16T08:16:03.835Z,33.43
2018-05-16T08:18:31.977Z,38.90
2018-05-16T08:21:00.135Z,34.20
2018-05-16T08:23:28.260Z,39.72
2018-05-16T08:25:56.388Z,33.63
2018-05-16T08:28:24.534Z,38.40
2018-05-16T08:30:52.665Z,40.03
2018-05-16T08:33:20.801Z,37.33
2018-05-16T08:35:48.926Z,37.87
2018-05-16T08:38:17.072Z,35.40
2018-05-16T08:40:45.211Z,29.00
2018-05-16T08:43:13.356Z,27.83
2018-05-16T08:45:41.491Z,25.20
2018-05-16T08:48:09.642Z,26.17
2018-05-16T08:50:37.790Z,28.10
2018-05-16T08:53:06.026Z,27.03
2018-05-16T08:55:34.145Z,28.10
2018-05-16T08:58:02.277Z,31.17
2018-05-16T09:00:30.424Z,31.17
2018-05-16T09:02:58.575Z,29.00
2018-05-16T09:05:26.695Z,30.55
2018-05-16T09:07:54.835Z,28.30
2018-05-16T09:10:22.980Z,29.50
2018-05-16T09:12:51.110Z,30.53
2018-05-16T09:15:19.276Z,27.40
2018-05-16T09:17:47.410Z,27.53
2018-05-16T09:20:17.214Z,24.17
2018-05-16T09:22:45.343Z,31.17
2018-05-16T09:25:13.498Z,21.90
2018-05-16T09:27:41.623Z,21.97
2018-05-16T09:30:09.764Z,19.83
2018-05-16T09:32:37.901Z,20.17
2018-05-16T09:35:06.082Z,21.03
2018-05-16T09:37:34.266Z,27.90
2018-05-16T09:40:02.412Z,24.70
2018-05-16T09:42:30.555Z,21.20
2018-05-16T09:44:58.698Z,20.40
2018-05-16T09:47:26.852Z,21.15
2018-05-16T09:49:54.981Z,21.37
2018-05-16T09:52:23.112Z,20.47
2018-05-16T09:54:51.241Z,34.40
2018-05-16T09:57:19.388Z,21.65
2018-05-16T09:59:47.543Z,19.30
2018-05-16T10:02:15.670Z,21.60
2018-05-16T10:04:43.799Z,21.67
2018-05-16T10:07:11.935Z,19.93
2018-05-16T10:09:40.086Z,21.40
2018-05-16T10:12:08.204Z,19.83
2018-05-16T10:14:36.356Z,20.53
2018-05-16T10:17:04.582Z,17.87
2018-05-16T10:19:32.702Z,17.77
2018-05-16T10:22:00.838Z,15.53
2018-05-16T10:24:28.979Z,17.43
2018-05-16T10:26:57.108Z,17.73
2018-05-16T10:29:25.295Z,16.60
2018-05-16T10:31:53.357Z,18.30
2018-05-16T10:34:22.684Z,18.90
2018-05-16T10:36:50.836Z,18.63
2018-05-16T10:39:18.969Z,20.83
2018-05-16T10:41:47.105Z,19.47
2018-05-16T10:44:15.247Z,19.35
2018-05-16T10:46:43.385Z,18.77
2018-05-16T10:49:11.509Z,14.50
2018-05-16T10:51:39.643Z,11.90
2018-05-16T10:54:07.792Z,12.87
2018-05-16T10:56:35.926Z,12.27
2018-05-16T10:59:04.054Z,11.80
2018-05-16T11:01:32.183Z,11.00
2018-05-16T11:04:00.309Z,10.63
2018-05-16T11:06:28.428Z,9.90
2018-05-16T11:08:56.575Z,10.53
2018-05-16T11:11:24.684Z,9.95
2018-05-16T11:13:52.816Z,12.00
2018-05-16T11:16:21.756Z,10.47
2018-05-16T11:18:49.890Z,10.37
2018-05-16T11:21:18.111Z,10.40
2018-05-16T11:23:46.270Z,9.77
2018-05-16T11:26:14.415Z,12.33
2018-05-16T11:28:43.439Z,10.73
2018-05-16T11:31:11.567Z,11.27
2018-05-16T11:33:39.705Z,10.57
2018-05-16T11:36:07.854Z,12.10
2018-05-16T11:38:35.990Z,18.90
2018-05-16T11:41:04.134Z,16.23
2018-05-16T11:43:32.260Z,31.73
2018-05-16T11:46:00.403Z,17.53
2018-05-16T11:48:28.528Z,15.77
2018-05-16T11:50:56.668Z,16.73
2018-05-16T11:53:24.811Z,15.80
2018-05-16T11:55:52.931Z,18.50
2018-05-16T11:58:21.067Z,16.23
2018-05-16T12:00:49.212Z,17.73
2018-05-16T12:03:17.378Z,18.20
2018-05-16T12:05:45.502Z,16.73
2018-05-16T12:08:13.638Z,14.63
2018-05-16T12:10:41.761Z,13.80
2018-05-16T12:13:10.439Z,13.03
2018-05-16T12:15:38.571Z,11.97
2018-05-16T12:18:06.700Z,10.13
2018-05-16T12:20:34.845Z,9.50
2018-05-16T12:23:02.974Z,7.70
2018-05-16T12:25:31.130Z,6.77
2018-05-16T12:27:59.294Z,5.90
2018-05-16T12:30:27.402Z,10.03
2018-05-16T12:32:55.524Z,6.23
2018-05-16T12:35:23.686Z,6.97
2018-05-16T12:37:51.819Z,6.40
2018-05-16T12:40:19.939Z,7.10
2018-05-16T12:42:59.751Z,7.87
2018-05-16T12:45:27.891Z,6.30
2018-05-16T12:47:56.028Z,6.55
2018-05-16T12:50:24.298Z,9.60
2018-05-16T12:52:52.426Z,6.73
2018-05-16T12:55:20.560Z,6.80
2018-05-16T12:57:48.714Z,7.50
2018-05-16T13:00:16.835Z,7.00
2018-05-16T13:02:44.975Z,8.93
2018-05-16T13:05:13.127Z,5.80
2018-05-16T13:07:41.241Z,5.40
2018-05-16T13:10:09.363Z,4.50
2018-05-16T13:12:37.646Z,3.70
2018-05-16T13:15:05.827Z,4.40
2018-05-16T13:17:33.952Z,4.87
2018-05-16T13:20:02.084Z,5.17
2018-05-16T13:22:30.206Z,4.47
2018-05-16T13:24:58.336Z,6.70
2018-05-16T13:27:26.465Z,6.68
2018-05-16T13:29:54.599Z,6.50
2018-05-16T13:32:22.718Z,6.27
2018-05-16T13:34:51.007Z,6.10
2018-05-16T13:37:19.137Z,7.20
2018-05-16T13:39:47.278Z,7.33
2018-05-16T13:42:15.434Z,6.60
2018-05-16T13:44:43.546Z,7.50
2018-05-16T13:47:11.681Z,11.70
2018-05-16T13:49:39.807Z,7.90
2018-05-16T13:52:07.943Z,9.57
2018-05-16T13:54:36.062Z,9.47
2018-05-16T13:57:04.180Z,9.83
2018-05-16T13:59:32.308Z,13.60
2018-05-16T14:02:00.429Z,11.73
2018-05-16T14:04:28.559Z,11.30
2018-05-16T14:06:56.685Z,11.50
2018-05-16T14:09:24.822Z,10.98
2018-05-16T14:11:52.953Z,10.87
2018-05-16T14:14:21.107Z,11.20
2018-05-16T14:16:49.243Z,10.30
2018-05-16T14:19:17.386Z,11.00
2018-05-16T14:21:45.521Z,10.00
2018-05-16T14:24:13.657Z,9.57
2018-05-16T14:26:41.804Z,7.07
2018-05-16T14:29:10.442Z,7.27
2018-05-16T14:31:38.566Z,6.90
2018-05-16T14:34:06.690Z,9.87
2018-05-16T14:36:34.811Z,17.60
2018-05-16T14:39:02.949Z,10.40
2018-05-16T14:41:31.101Z,10.63
2018-05-16T14:43:59.219Z,9.60
2018-05-16T14:46:27.333Z,9.27
2018-05-16T14:48:55.480Z,9.20
2018-05-16T14:51:23.713Z,9.27
2018-05-16T14:53:51.843Z,8.25
2018-05-16T14:56:19.982Z,8.90
2018-05-16T14:58:48.102Z,8.47
2018-05-16T15:01:16.231Z,7.10
2018-05-16T15:03:44.369Z,7.83
2018-05-16T15:06:12.487Z,5.17
2018-05-16T15:08:40.619Z,3.80
2018-05-16T15:11:08.765Z,5.63
2018-05-16T15:13:36.902Z,5.87
2018-05-16T15:16:05.028Z,5.30
2018-05-16T15:18:33.142Z,4.47
2018-05-16T15:21:01.279Z,5.70
2018-05-16T15:23:29.402Z,5.20
2018-05-16T15:25:57.575Z,5.53
2018-05-16T15:28:25.693Z,5.70
2018-05-16T15:30:53.830Z,5.83
2018-05-16T15:33:21.962Z,5.03
2018-05-16T15:35:50.079Z,4.27
2018-05-16T15:38:18.330Z,4.55
2018-05-16T15:40:46.360Z,3.20
2018-05-16T15:43:15.245Z,3.73
2018-05-16T15:45:43.366Z,2.87
2018-05-16T15:48:11.511Z,3.70
2018-05-16T15:50:39.633Z,2.60
2018-05-16T15:53:07.825Z,3.60
2018-05-16T15:55:35.954Z,3.10
2018-05-16T15:58:04.070Z,3.07
2018-05-16T16:00:32.200Z,2.70
2018-05-16T16:03:00.312Z,2.47
2018-05-16T16:05:28.433Z,2.43
2018-05-16T16:07:56.547Z,3.00
2018-05-16T16:10:24.671Z,3.40
2018-05-16T16:12:52.833Z,3.37
2018-05-16T16:15:20.960Z,4.00
2018-05-16T16:17:49.090Z,4.50
2018-05-16T16:20:17.202Z,7.23
2018-05-16T16:22:45.317Z,4.00
2018-05-16T16:25:13.455Z,5.57
2018-05-16T16:27:41.571Z,4.90
2018-05-16T16:30:09.681Z,4.90
2018-05-16T16:32:37.811Z,4.90
2018-05-16T16:35:05.949Z,5.78
2018-05-16T16:37:34.058Z,6.30
2018-05-16T16:40:02.180Z,6.50
2018-05-16T16:42:30.317Z,5.83
2018-05-16T16:44:58.484Z,6.50
2018-05-16T16:47:26.564Z,5.97
2018-05-16T16:49:54.684Z,8.27
2018-05-16T16:52:22.812Z,6.80
2018-05-16T16:54:50.945Z,7.70
2018-05-16T16:57:19.212Z,6.25
2018-05-16T16:59:47.191Z,6.87
2018-05-16T17:02:15.396Z,8.47
2018-05-16T17:04:43.579Z,5.60
2018-05-16T17:07:11.646Z,7.00
2018-05-16T17:09:39.786Z,5.37
2018-05-16T17:12:07.914Z,5.93
2018-05-16T17:14:36.041Z,5.37
2018-05-16T17:17:04.163Z,5.40
2018-05-16T17:19:32.478Z,9.15
2018-05-16T17:22:01.366Z,5.93
2018-05-16T17:24:29.501Z,4.77
2018-05-16T17:26:57.639Z,9.43
2018-05-16T17:29:25.750Z,5.47
2018-05-16T17:31:53.951Z,5.40
2018-05-16T17:34:22.067Z,5.63
2018-05-16T17:36:50.179Z,4.80
2018-05-16T17:39:18.313Z,4.90
2018-05-16T17:41:46.456Z,5.07
2018-05-16T17:44:15.106Z,5.23
2018-05-16T17:46:43.230Z,5.57
2018-05-16T17:49:11.349Z,5.00
2018-05-16T17:51:39.479Z,5.10
2018-05-16T17:54:07.595Z,5.27
2018-05-16T17:56:35.705Z,5.40
2018-05-16T17:59:03.815Z,5.00
2018-05-16T18:01:31.939Z,5.43
2018-05-16T18:04:00.105Z,4.93
2018-05-16T18:06:28.266Z,5.00
2018-05-16T18:08:56.348Z,5.53
2018-05-16T18:11:24.473Z,7.03
2018-05-16T18:17:06.712Z,7.50
2018-05-16T18:19:35.483Z,10.57
2018-05-16T18:22:03.607Z,6.90
2018-05-16T18:24:31.730Z,4.83
2018-05-16T18:26:59.856Z,4.83
2018-05-16T18:29:27.983Z,5.18
2018-05-16T18:31:56.120Z,5.73
2018-05-16T18:34:24.246Z,5.20
2018-05-16T18:36:52.366Z,5.73
2018-05-16T18:39:20.495Z,4.93
2018-05-16T18:41:48.643Z,4.17
2018-05-16T18:44:16.780Z,4.53
2018-05-16T18:46:44.891Z,5.60
2018-05-16T18:49:13.125Z,5.13
2018-05-16T18:51:41.250Z,6.53
2018-05-16T18:54:09.374Z,6.43
2018-05-16T18:56:37.498Z,7.10
2018-05-16T18:59:05.625Z,7.37
2018-05-16T19:01:33.749Z,9.13
2018-05-16T19:04:01.879Z,8.00
2018-05-16T19:06:30.005Z,8.47
2018-05-16T19:08:58.123Z,9.20
2018-05-16T19:11:26.291Z,8.38
2018-05-16T19:13:54.416Z,8.47
2018-05-16T19:16:22.535Z,8.60
2018-05-16T19:18:50.657Z,9.87
2018-05-16T19:21:18.795Z,7.55
2018-05-16T19:23:46.932Z,8.50
2018-05-16T19:26:15.294Z,7.23
2018-05-16T19:28:43.402Z,6.90
2018-05-16T19:31:11.553Z,6.93
2018-05-16T19:33:40.041Z,6.67
2018-05-16T19:36:08.160Z,7.23
2018-05-16T19:38:36.288Z,6.60
2018-05-16T19:41:04.420Z,6.23
2018-05-16T19:43:32.530Z,6.20
2018-05-16T19:46:00.776Z,6.90
2018-05-16T19:48:28.895Z,7.17
2018-05-16T19:50:57.021Z,7.03
2018-05-16T19:53:25.140Z,7.20
2018-05-16T19:55:53.539Z,8.50
2018-05-16T19:58:21.664Z,8.67
2018-05-16T20:00:49.786Z,8.73
2018-05-16T20:03:17.976Z,7.90
2018-05-16T20:05:46.055Z,8.52
2018-05-16T20:08:14.171Z,7.43
2018-05-16T20:10:42.333Z,8.27
2018-05-16T20:13:10.487Z,7.13
2018-05-16T20:15:38.646Z,7.70
2018-05-16T20:18:06.813Z,7.03
2018-05-16T20:20:34.970Z,7.90
2018-05-16T20:23:03.130Z,9.20
2018-05-16T20:25:31.293Z,9.10
2018-05-16T20:27:59.428Z,8.30
2018-05-16T20:30:27.595Z,8.68
2018-05-16T20:32:55.757Z,8.27
2018-05-16T20:35:23.914Z,9.35
2018-05-16T20:37:52.069Z,9.00
2018-05-16T20:40:20.247Z,9.50
2018-05-16T20:42:48.369Z,8.30
2018-05-16T20:45:16.491Z,9.40
2018-05-16T20:47:44.623Z,9.27
2018-05-16T20:50:12.754Z,9.97
2018-05-16T20:52:40.870Z,9.37
2018-05-16T20:55:08.995Z,9.17
2018-05-16T20:57:37.112Z,9.13
2018-05-16T21:00:05.263Z,10.23
2018-05-16T21:02:33.373Z,9.97
2018-05-16T21:05:01.486Z,9.63
2018-05-16T21:07:29.609Z,10.57
2018-05-16T21:09:57.748Z,8.97
2018-05-16T21:12:25.858Z,9.43
2018-05-16T21:14:54.866Z,9.20
2018-05-16T21:17:23.005Z,10.80
2018-05-16T21:19:51.154Z,10.47
2018-05-16T21:22:19.271Z,11.97
2018-05-16T21:24:47.391Z,11.80
2018-05-16T21:27:15.510Z,10.20
2018-05-16T21:29:43.655Z,11.03
2018-05-16T21:32:11.811Z,10.93
2018-05-16T21:34:39.928Z,10.17
2018-05-16T21:37:08.071Z,10.17
2018-05-16T21:39:36.203Z,10.63
2018-05-16T21:42:04.332Z,10.77
2018-05-16T21:44:32.461Z,10.35
2018-05-16T21:47:00.585Z,10.80
2018-05-16T21:49:28.721Z,10.25
2018-05-16T21:51:56.856Z,9.40
2018-05-16T21:54:24.982Z,10.10
2018-05-16T21:56:53.099Z,10.07
2018-05-16T21:59:21.214Z,17.33
2018-05-16T22:01:49.341Z,10.43
2018-05-16T22:04:17.482Z,10.10
2018-05-16T22:06:45.591Z,11.33
2018-05-16T22:09:13.726Z,10.87
2018-05-16T22:11:41.867Z,11.07
2018-05-16T22:14:09.990Z,10.93
2018-05-16T22:16:38.395Z,10.57
2018-05-16T22:19:06.575Z,10.63
2018-05-16T22:21:34.707Z,10.40
2018-05-16T22:24:02.851Z,12.50
2018-05-16T22:26:30.984Z,12.00
2018-05-16T22:28:59.120Z,10.73
2018-05-16T22:31:32.919Z,11.55
2018-05-16T22:34:06.636Z,10.43
2018-05-16T22:36:43.814Z,10.73
2018-05-16T22:39:17.686Z,11.00
2018-05-16T22:41:51.414Z,13.83
2018-05-16T22:44:44.711Z,10.10
2018-05-16T22:47:12.863Z,10.63
2018-05-16T22:49:40.989Z,10.13
2018-05-16T22:52:09.149Z,10.60
2018-05-16T22:54:37.300Z,16.60
2018-05-16T22:57:05.496Z,10.33
2018-05-16T22:59:33.629Z,11.60
2018-05-16T23:02:01.785Z,10.90
2018-05-16T23:04:29.901Z,10.00
2018-05-16T23:06:58.057Z,9.87
2018-05-16T23:09:26.190Z,11.10
2018-05-16T23:11:54.325Z,11.37
2018-05-16T23:14:23.210Z,11.83
2018-05-16T23:16:51.356Z,12.90
2018-05-16T23:19:19.487Z,11.27
2018-05-16T23:21:47.612Z,12.50
2018-05-16T23:24:15.765Z,12.40
2018-05-16T23:26:43.895Z,12.20
2018-05-16T23:29:12.038Z,11.73
2018-05-16T23:31:40.163Z,11.40
2018-05-16T23:34:08.300Z,11.30
2018-05-16T23:36:36.432Z,19.67
2018-05-16T23:39:05.358Z,11.10
2018-05-16T23:41:33.480Z,11.43
2018-05-16T23:44:01.590Z,9.73
2018-05-16T23:46:29.749Z,12.95
2018-05-16T23:48:57.866Z,11.10
2018-05-16T23:51:26.018Z,11.40
2018-05-16T23:53:54.137Z,10.00
2018-05-16T23:56:22.274Z,10.45
2018-05-16T23:58:50.422Z,10.67
